Terminal Aerodrome Forecast
Issued by NWS

Home | Current Version | Previous Version | Text Only | Print | Product List | Glossary On
Versions: 1 2 3 4 5 6 7 8 9 10 11 12 13 14 15 16 17 18
276
FTUS46 KSGX 211132
TAFSNA
TAF
KSNA 211132Z 2112/2212 15006KT P6SM SCT025 OVC035
     FM211300 15010KT P6SM VCSH SCT015 OVC025
      TEMPO 2113/2116 5SM -SHRA BKN015
     FM211600 21011G18KT P6SM SCT025 BKN035
     FM220200 23006KT P6SM SCT025 BKN035
     FM220900 VRB06KT P6SM BKN025=

USA.gov is the U.S. government's official web portal to all federal, state and local government web resources and services.